Time;durP1;ratioP1;P1;durP2;ratioP2;P2;SDS_P1;SDS_P2;PMS_P1;PMS_P2;Temp;Humidity;BMP_temperature;BMP_pressure;BME280_temperature;BME280_humidity;BME280_pressure;Samples;Min_cycle;Max_cycle;Signal;HPM_P1;HPM_P2
2023/05/16 00:01:08;;;;;;;;;;;;;;;21.88;50.42;100444.00;5007362;28;4354;-72
2023/05/16 00:03:35;;;;;;;;;;;;;;;21.87;50.26;100439.63;5008390;28;4544;-72
2023/05/16 00:06:02;;;;;;;;;;;;;;;21.84;50.02;100433.06;5007294;28;4313;-73
2023/05/16 00:08:28;;;;;;;;;;;;;;;21.85;50.29;100439.56;5007865;28;4256;-72
2023/05/16 00:10:54;;;;;;;;;;;;;;;21.84;50.20;100449.63;5002963;28;4122;-72
2023/05/16 00:13:23;;;;;;;;;;;;;;;21.87;50.32;100442.50;5010105;28;4369;-72
2023/05/16 00:15:50;;;;;;;;;;;;;;;21.84;50.45;100446.75;5006399;28;4115;-72
2023/05/16 00:18:18;;;;;;;;;;;;;;;21.84;50.24;100443.88;5008537;28;4064;-72
2023/05/16 00:20:44;;;;;;;;;;;;;;;21.83;50.42;100448.13;5004934;28;4155;-72
2023/05/16 00:23:11;;;;;;;;;;;;;;;21.84;50.35;100449.63;5010733;28;4199;-72
2023/05/16 00:25:38;;;;;;;;;;;;;;;21.83;50.08;100453.91;5006865;28;4051;-72
2023/05/16 00:28:04;;;;;;;;;;;;;;;21.83;50.27;100448.13;5008131;28;4077;-73
2023/05/16 00:30:30;;;;;;;;;;;;;;;21.82;50.23;100464.69;5012011;28;4160;-72
2023/05/16 00:32:57;;;;;;;;;;;;;;;21.82;50.23;100458.19;5007362;28;4121;-73
2023/05/16 00:35:23;;;;;;;;;;;;;;;21.82;50.42;100461.09;5007421;28;4000;-73
2023/05/16 00:37:49;;;;;;;;;;;;;;;21.81;50.28;100450.97;5010932;28;4114;-72
2023/05/16 00:40:16;;;;;;;;;;;;;;;21.81;50.27;100450.97;5007682;28;4307;-71
2023/05/16 00:42:42;;;;;;;;;;;;;;;21.81;50.62;100456.75;5008647;28;5374;-72
2023/05/16 00:45:09;;;;;;;;;;;;;;;21.81;50.24;100462.50;5005324;28;4155;-72
2023/05/16 00:47:35;;;;;;;;;;;;;;;21.80;50.40;100464.63;5009985;28;4155;-73
2023/05/16 00:50:02;;;;;;;;;;;;;;;21.80;50.33;100472.53;5003399;28;4129;-72
2023/05/16 00:52:29;;;;;;;;;;;;;;;21.80;50.33;100475.41;5006383;28;4573;-73
2023/05/16 00:54:56;;;;;;;;;;;;;;;21.80;50.37;100466.78;5020253;28;4071;-72
2023/05/16 00:57:22;;;;;;;;;;;;;;;21.79;50.26;100468.19;5004603;28;4869;-72
2023/05/16 00:59:48;;;;;;;;;;;;;;;21.78;50.34;100469.59;5005195;28;4107;-72
2023/05/16 01:02:16;;;;;;;;;;;;;;;21.78;50.51;100475.34;5008992;28;4356;-72
2023/05/16 01:04:43;;;;;;;;;;;;;;;21.78;50.45;100469.59;5010363;28;4127;-72
2023/05/16 01:07:10;;;;;;;;;;;;;;;21.78;50.44;100486.88;5008922;28;4024;-73
2023/05/16 01:09:36;;;;;;;;;;;;;;;21.78;50.28;100489.75;5013013;28;4180;-72
2023/05/16 01:12:20;;;;;;;;;;;;;;;21.78;50.16;100486.88;5009108;28;4577;-73
2023/05/16 01:14:55;;;;;;;;;;;;;;;21.77;50.36;100491.19;5001296;28;4288;-73
2023/05/16 01:17:22;;;;;;;;;;;;;;;21.77;50.36;100491.19;5008172;28;4068;-73
2023/05/16 01:19:55;;;;;;;;;;;;;;;21.77;50.41;100494.06;5006159;28;4244;-73
2023/05/16 01:22:29;;;;;;;;;;;;;;;21.76;50.33;100499.06;5000462;28;4127;-73
2023/05/16 01:25:02;;;;;;;;;;;;;;;21.76;50.13;100499.06;5006767;28;4190;-73
2023/05/16 01:27:29;;;;;;;;;;;;;;;21.75;50.60;100501.22;5005656;28;4327;-73
2023/05/16 01:29:56;;;;;;;;;;;;;;;21.75;50.37;100506.97;5002764;28;4284;-73
2023/05/16 01:32:23;;;;;;;;;;;;;;;21.74;50.31;100510.53;5008043;28;4166;-73
2023/05/16 01:34:50;;;;;;;;;;;;;;;21.74;50.41;100511.28;5003154;28;4522;-73
2023/05/16 01:37:18;;;;;;;;;;;;;;;21.74;50.25;100517.03;4990043;28;4054;-73
2023/05/16 01:39:46;;;;;;;;;;;;;;;21.74;50.40;100522.81;4992957;28;4197;-73
2023/05/16 01:42:13;;;;;;;;;;;;;;;21.72;50.19;100522.72;5001081;28;5238;-72
2023/05/16 01:44:40;;;;;;;;;;;;;;;21.73;50.37;100523.47;5009993;28;4229;-73
2023/05/16 01:47:08;;;;;;;;;;;;;;;21.72;50.15;100528.50;5013818;28;4489;-73
2023/05/16 01:49:35;;;;;;;;;;;;;;;21.72;50.26;100542.16;5007580;28;4101;-72
2023/05/16 01:52:10;;;;;;;;;;;;;;;21.71;50.10;100538.53;5007674;28;4743;-72
2023/05/16 01:54:36;;;;;;;;;;;;;;;21.72;50.20;100551.53;5005186;28;4134;-72
2023/05/16 01:57:03;;;;;;;;;;;;;;;21.72;50.22;100554.44;5012051;28;4360;-72
2023/05/16 01:59:29;;;;;;;;;;;;;;;21.72;50.17;100565.22;5008897;28;4196;-73
2023/05/16 02:01:56;;;;;;;;;;;;;;;21.72;50.35;100571.00;4997347;28;4127;-73
2023/05/16 02:04:23;;;;;;;;;;;;;;;21.71;50.28;100575.25;5007812;28;4371;-72
2023/05/16 02:06:49;;;;;;;;;;;;;;;21.70;50.19;100563.00;5011231;28;4113;-72
2023/05/16 02:09:16;;;;;;;;;;;;;;;21.70;50.17;100565.88;4987140;28;4610;-73
2023/05/16 02:11:42;;;;;;;;;;;;;;;21.69;50.17;100561.53;5001840;28;4266;-72
2023/05/16 02:14:08;;;;;;;;;;;;;;;21.69;50.03;100567.28;5005611;28;4316;-72
2023/05/16 02:16:36;;;;;;;;;;;;;;;21.70;50.30;100577.41;5009258;28;4254;-72
2023/05/16 02:19:02;;;;;;;;;;;;;;;21.69;50.29;100578.81;5007390;28;4081;-73
2023/05/16 02:21:30;;;;;;;;;;;;;;;21.68;49.98;100580.22;5003367;28;4137;-72
2023/05/16 02:23:56;;;;;;;;;;;;;;;21.68;50.25;100580.22;5003902;28;4197;-72
2023/05/16 02:26:25;;;;;;;;;;;;;;;21.69;50.05;100590.34;5002737;28;4156;-72
2023/05/16 02:28:51;;;;;;;;;;;;;;;21.69;49.94;100592.47;5004920;28;4151;-72
2023/05/16 02:31:24;;;;;;;;;;;;;;;21.67;50.05;100596.03;5009112;28;4363;-72
2023/05/16 02:33:50;;;;;;;;;;;;;;;21.67;50.28;100598.91;5016311;28;4104;-72
2023/05/16 02:36:17;;;;;;;;;;;;;;;21.66;50.19;100597.44;5002025;28;4067;-72
2023/05/16 02:38:43;;;;;;;;;;;;;;;21.64;50.25;100591.59;5000740;28;4067;-71
2023/05/16 02:41:09;;;;;;;;;;;;;;;21.65;49.87;100601.00;5003636;28;4079;-68
2023/05/16 02:43:36;;;;;;;;;;;;;;;21.66;49.93;100600.31;5017588;28;4508;-70
2023/05/16 02:46:18;;;;;;;;;;;;;;;21.65;49.95;100613.25;5003273;28;4583;-71
2023/05/16 02:48:45;;;;;;;;;;;;;;;21.66;49.86;100611.09;5007278;28;4164;-70
2023/05/16 02:51:11;;;;;;;;;;;;;;;21.64;50.05;100611.75;5004783;28;4200;-70
2023/05/16 02:53:38;;;;;;;;;;;;;;;21.64;49.97;100611.75;5003376;28;4552;-70
2023/05/16 02:56:05;;;;;;;;;;;;;;;21.64;49.97;100611.75;5019824;28;4210;-70
2023/05/16 02:58:32;;;;;;;;;;;;;;;21.65;50.16;100619.00;5009296;28;4014;-70
2023/05/16 03:00:58;;;;;;;;;;;;;;;21.64;50.13;100628.31;5004606;28;4018;-70
2023/05/16 03:03:25;;;;;;;;;;;;;;;21.63;49.85;100633.34;5002559;28;4231;-70
2023/05/16 03:05:52;;;;;;;;;;;;;;;21.64;49.84;100631.19;5019453;28;4026;-70
2023/05/16 03:08:18;;;;;;;;;;;;;;;21.63;49.76;100644.13;5002215;28;4276;-71
2023/05/16 03:10:45;;;;;;;;;;;;;;;21.63;49.84;100639.09;5003422;28;4488;-70
2023/05/16 03:13:12;;;;;;;;;;;;;;;21.63;49.82;100650.63;5010363;28;4575;-71
2023/05/16 03:15:38;;;;;;;;;;;;;;;21.62;49.67;100654.91;5003336;28;4543;-70
2023/05/16 03:18:05;;;;;;;;;;;;;;;21.62;49.85;100657.78;5004351;28;4151;-71
2023/05/16 03:20:31;;;;;;;;;;;;;;;21.62;49.90;100654.91;5005441;28;4265;-71
2023/05/16 03:22:57;;;;;;;;;;;;;;;21.62;50.03;100660.66;4999629;28;4170;-70
2023/05/16 03:25:24;;;;;;;;;;;;;;;21.62;49.62;100674.34;5010104;28;4659;-71
2023/05/16 03:27:50;;;;;;;;;;;;;;;21.61;49.99;100664.22;5001392;28;4135;-70
2023/05/16 03:30:18;;;;;;;;;;;;;;;21.60;49.91;100663.50;5003849;28;4305;-70
2023/05/16 03:32:44;;;;;;;;;;;;;;;21.61;49.82;100658.47;5000938;28;4088;-71
2023/05/16 03:35:11;;;;;;;;;;;;;;;21.60;49.73;100656.97;4997727;28;4332;-71
2023/05/16 03:37:37;;;;;;;;;;;;;;;21.60;49.70;100656.97;5031225;28;4385;-71
2023/05/16 03:40:04;;;;;;;;;;;;;;;21.59;49.74;100661.25;5007917;28;4183;-71
2023/05/16 03:42:31;;;;;;;;;;;;;;;21.60;49.69;100662.72;5003595;28;4365;-71
2023/05/16 03:44:57;;;;;;;;;;;;;;;21.59;49.74;100672.78;5000858;28;4032;-71
2023/05/16 03:47:24;;;;;;;;;;;;;;;21.58;49.96;100659.75;5004526;28;4442;-71
2023/05/16 03:49:50;;;;;;;;;;;;;;;21.58;49.87;100672.06;5001399;28;4534;-71
2023/05/16 03:52:16;;;;;;;;;;;;;;;21.59;49.71;100685.03;5003543;28;4126;-70
2023/05/16 03:54:43;;;;;;;;;;;;;;;21.57;49.89;100670.56;5002012;28;4179;-70
2023/05/16 03:57:09;;;;;;;;;;;;;;;21.57;49.75;100670.56;5003093;28;4074;-71
2023/05/16 03:59:37;;;;;;;;;;;;;;;21.57;49.61;100664.06;5001707;28;4111;-71
2023/05/16 04:02:04;;;;;;;;;;;;;;;21.56;49.70;100671.97;5003373;28;4190;-71
2023/05/16 04:04:31;;;;;;;;;;;;;;;21.57;49.81;100670.56;5004098;28;4136;-71
2023/05/16 04:06:57;;;;;;;;;;;;;;;21.56;49.77;100677.72;5002966;28;4308;-70
2023/05/16 04:09:23;;;;;;;;;;;;;;;21.57;49.67;100684.22;5004096;28;4170;-70
2023/05/16 04:11:50;;;;;;;;;;;;;;;21.57;49.56;100695.75;5003792;28;4046;-71
2023/05/16 04:14:16;;;;;;;;;;;;;;;21.54;49.71;100700.69;5003902;28;4013;-71
2023/05/16 04:16:43;;;;;;;;;;;;;;;21.55;49.83;100702.16;5003785;28;4233;-71
2023/05/16 04:19:09;;;;;;;;;;;;;;;21.55;49.86;100702.16;5009821;28;4186;-70
2023/05/16 04:21:36;;;;;;;;;;;;;;;21.55;49.79;100713.69;5006913;28;4272;-70
2023/05/16 04:24:02;;;;;;;;;;;;;;;21.54;49.62;100712.22;5006255;28;4246;-71
2023/05/16 04:26:29;;;;;;;;;;;;;;;21.53;49.46;100723.00;5005183;28;4206;-71
2023/05/16 04:28:55;;;;;;;;;;;;;;;21.54;49.61;100720.88;5004842;28;4353;-70
2023/05/16 04:31:22;;;;;;;;;;;;;;;21.53;49.59;100723.00;5006819;28;4110;-71
2023/05/16 04:33:48;;;;;;;;;;;;;;;21.53;49.54;100728.03;5007224;28;4616;-70
2023/05/16 04:36:14;;;;;;;;;;;;;;;21.53;49.61;100733.78;5007280;28;4378;-70
2023/05/16 04:38:41;;;;;;;;;;;;;;;21.52;49.51;100732.31;5008795;28;4737;-71
2023/05/16 04:41:08;;;;;;;;;;;;;;;21.53;49.75;100728.78;5006420;28;4494;-70
2023/05/16 04:43:34;;;;;;;;;;;;;;;21.51;49.72;100730.84;5005991;28;4067;-70
2023/05/16 04:46:01;;;;;;;;;;;;;;;21.50;49.72;100724.31;5010209;28;4537;-71
2023/05/16 04:48:27;;;;;;;;;;;;;;;21.51;49.71;100733.72;5010119;28;3994;-71
2023/05/16 04:50:54;;;;;;;;;;;;;;;21.51;49.76;100739.50;5002295;28;4160;-71
2023/05/16 04:53:20;;;;;;;;;;;;;;;21.51;49.56;100742.38;5007851;28;4022;-71
2023/05/16 04:55:47;;;;;;;;;;;;;;;21.51;49.43;100745.25;5005600;28;3977;-71
2023/05/16 04:58:13;;;;;;;;;;;;;;;21.51;49.59;100742.38;5006222;28;4026;-71
2023/05/16 05:00:40;;;;;;;;;;;;;;;21.51;49.58;100753.91;5004280;28;4133;-71
2023/05/16 05:03:06;;;;;;;;;;;;;;;21.50;49.40;100755.28;4997703;28;4001;-71
2023/05/16 05:05:33;;;;;;;;;;;;;;;21.50;49.61;100763.91;5010039;28;4171;-71
2023/05/16 05:08:00;;;;;;;;;;;;;;;21.50;49.49;100758.16;5004738;28;4905;-71
2023/05/16 05:10:26;;;;;;;;;;;;;;;21.49;49.81;100773.97;4997483;28;4069;-78
2023/05/16 05:12:53;;;;;;;;;;;;;;;21.02;49.02;100772.00;5000481;28;4253;-82
2023/05/16 05:15:19;;;;;;;;;;;;;;;21.18;50.45;100775.56;5002721;28;4436;-88
2023/05/16 05:17:45;;;;;;;;;;;;;;;21.45;49.32;100776.69;5004568;28;4218;-82
2023/05/16 05:20:12;;;;;;;;;;;;;;;21.53;48.82;100772.00;5004836;28;4440;-81
2023/05/16 05:22:38;;;;;;;;;;;;;;;21.60;48.86;100778.75;5005082;28;4205;-77
2023/05/16 05:25:05;;;;;;;;;;;;;;;21.65;48.64;100794.06;4994323;28;4169;-80
2023/05/16 05:27:31;;;;;;;;;;;;;;;21.62;48.79;100793.22;4996159;28;4460;-76
2023/05/16 05:29:57;;;;;;;;;;;;;;;21.73;48.81;100800.88;5003382;28;4196;-77
2023/05/16 05:32:24;;;;;;;;;;;;;;;21.73;48.87;100797.25;4997147;28;4558;-76
2023/05/16 05:34:51;;;;;;;;;;;;;;;21.77;49.29;100803.19;5005638;28;4498;-78
2023/05/16 05:37:17;;;;;;;;;;;;;;;21.63;49.61;100799.75;5002988;28;4131;-86
2023/05/16 05:39:44;;;;;;;;;;;;;;;21.64;49.40;100810.59;4997822;28;4105;-78
2023/05/16 05:42:11;;;;;;;;;;;;;;;21.60;49.24;100810.44;5002390;28;4208;-81
2023/05/16 05:44:37;;;;;;;;;;;;;;;21.57;49.18;100814.63;5000645;28;3980;-80
2023/05/16 05:47:04;;;;;;;;;;;;;;;21.57;49.41;100820.38;5003485;28;4143;-81
2023/05/16 05:49:31;;;;;;;;;;;;;;;21.57;49.14;100825.41;5008607;28;5065;-81
2023/05/16 05:51:57;;;;;;;;;;;;;;;21.56;49.11;100824.69;5009693;28;4125;-81
2023/05/16 05:54:23;;;;;;;;;;;;;;;21.56;49.20;100833.31;5005204;28;4068;-81
2023/05/16 05:56:50;;;;;;;;;;;;;;;21.56;49.18;100833.31;5008950;28;4066;-81
2023/05/16 05:59:16;;;;;;;;;;;;;;;21.56;49.09;100841.97;5003192;28;4142;-81
2023/05/16 06:01:43;;;;;;;;;;;;;;;21.54;49.25;100833.22;5005913;28;4051;-80
2023/05/16 06:04:10;;;;;;;;;;;;;;;21.54;49.21;100844.75;5003882;28;4011;-81
2023/05/16 06:06:36;;;;;;;;;;;;;;;21.54;49.21;100845.50;5007108;28;4052;-81
2023/05/16 06:09:02;;;;;;;;;;;;;;;21.60;51.29;100836.38;5000005;28;3996;-79
2023/05/16 06:11:29;;;;;;;;;;;;;;;21.77;50.96;100842.78;5005626;28;4072;-82
2023/05/16 06:13:55;;;;;;;;;;;;;;;21.88;50.52;100841.81;5010070;28;4146;-79
2023/05/16 06:16:24;;;;;;;;;;;;;;;21.95;50.13;100837.75;5010037;28;4114;-80
2023/05/16 06:18:51;;;;;;;;;;;;;;;22.05;49.50;100848.94;4997534;28;4167;-79
2023/05/16 06:21:17;;;;;;;;;;;;;;;22.08;49.62;100848.38;5005829;28;4955;-82
2023/05/16 06:23:44;;;;;;;;;;;;;;;22.14;49.22;100851.47;5005179;28;4236;-81
2023/05/16 06:26:10;;;;;;;;;;;;;;;22.18;49.32;100851.63;5004795;28;4169;-84
2023/05/16 06:28:36;;;;;;;;;;;;;;;22.26;49.16;100845.47;5004491;28;4491;-79
2023/05/16 06:31:03;;;;;;;;;;;;;;;22.38;48.50;100854.59;5006278;28;4143;-84
2023/05/16 06:33:29;;;;;;;;;;;;;;;22.44;48.08;100859.84;5010708;28;4513;-79
2023/05/16 06:35:55;;;;;;;;;;;;;;;22.54;47.71;100862.38;5011303;28;4107;-87
2023/05/16 06:38:22;;;;;;;;;;;;;;;22.56;47.43;100860.31;5013531;28;4149;-88
2023/05/16 06:40:48;;;;;;;;;;;;;;;22.59;47.14;100864.75;5011690;28;4225;-83
2023/05/16 06:43:14;;;;;;;;;;;;;;;22.53;46.67;100873.16;5006925;28;4587;-75
2023/05/16 06:45:41;;;;;;;;;;;;;;;22.57;46.77;100873.31;5005457;28;4528;-75
2023/05/16 06:48:07;;;;;;;;;;;;;;;22.61;46.12;100886.41;5006356;28;4121;-74
2023/05/16 06:50:34;;;;;;;;;;;;;;;22.57;45.88;100890.66;5006063;28;4101;-80
2023/05/16 06:53:01;;;;;;;;;;;;;;;22.41;46.68;100895.81;4999444;28;4841;-78
2023/05/16 06:55:27;;;;;;;;;;;;;;;22.40;46.83;100894.31;5012048;28;4588;-82
2023/05/16 06:57:54;;;;;;;;;;;;;;;22.44;46.14;100900.25;5010291;28;4122;-79
2023/05/16 07:00:20;;;;;;;;;;;;;;;22.44;46.36;100900.25;5014521;28;4169;-79
2023/05/16 07:02:47;;;;;;;;;;;;;;;22.29;46.39;100904.00;5008433;28;4469;-78
2023/05/16 07:05:13;;;;;;;;;;;;;;;22.09;46.63;100901.75;5010730;28;4342;-76
2023/05/16 07:07:40;;;;;;;;;;;;;;;22.03;46.67;100904.38;5014813;28;4107;-78
2023/05/16 07:10:06;;;;;;;;;;;;;;;22.18;46.86;100902.81;5009736;28;4435;-78
2023/05/16 07:12:34;;;;;;;;;;;;;;;21.99;46.54;100909.25;5006505;28;3969;-79
2023/05/16 07:15:00;;;;;;;;;;;;;;;22.18;47.04;100908.59;4992008;28;4155;-76
2023/05/16 07:17:27;;;;;;;;;;;;;;;22.23;46.65;100913.13;5005107;28;4038;-77
2023/05/16 07:19:53;;;;;;;;;;;;;;;22.04;46.61;100923.19;5008043;28;4170;-76
2023/05/16 07:22:19;;;;;;;;;;;;;;;21.96;47.15;100917.81;5001036;28;4150;-76
2023/05/16 07:24:46;;;;;;;;;;;;;;;21.96;46.79;100922.84;5005705;28;3974;-77
2023/05/16 07:27:12;;;;;;;;;;;;;;;21.96;47.11;100937.25;4997088;28;4283;-75
2023/05/16 07:29:39;;;;;;;;;;;;;;;21.89;47.27;100924.72;5004635;28;4135;-74
2023/05/16 07:32:06;;;;;;;;;;;;;;;21.83;47.61;100938.16;5004700;28;4174;-75
2023/05/16 07:34:32;;;;;;;;;;;;;;;21.81;47.45;100926.56;5002400;28;4070;-76
2023/05/16 07:36:59;;;;;;;;;;;;;;;21.82;47.37;100931.66;4999976;28;4408;-77
2023/05/16 07:39:25;;;;;;;;;;;;;;;21.81;47.63;100935.19;5001492;28;4250;-78
2023/05/16 07:41:52;;;;;;;;;;;;;;;21.83;47.69;100918.72;5002924;28;4152;-77
2023/05/16 07:44:18;;;;;;;;;;;;;;;21.83;47.51;100920.84;5007226;28;4092;-76
2023/05/16 07:46:45;;;;;;;;;;;;;;;22.05;48.37;100918.88;5005088;28;4137;-72
2023/05/16 07:49:11;;;;;;;;;;;;;;;22.17;47.58;100913.63;5007668;28;4078;-74
2023/05/16 07:51:38;;;;;;;;;;;;;;;22.30;47.47;100911.22;4999799;28;4117;-73
2023/05/16 07:54:04;;;;;;;;;;;;;;;22.30;47.73;100920.63;5004278;28;4392;-83
2023/05/16 07:56:31;;;;;;;;;;;;;;;22.47;47.03;100927.03;5008613;28;4449;-72
2023/05/16 07:58:58;;;;;;;;;;;;;;;22.45;47.42;100924.81;5006472;28;4109;-77
2023/05/16 08:01:25;;;;;;;;;;;;;;;22.50;47.11;100938.00;5008452;28;4163;-73
2023/05/16 08:03:52;;;;;;;;;;;;;;;22.64;47.03;100934.19;5008588;28;4188;-76
2023/05/16 08:06:18;;;;;;;;;;;;;;;22.75;46.65;100944.72;5009782;28;5162;-75
2023/05/16 08:08:45;;;;;;;;;;;;;;;22.70;46.71;100940.94;5013186;28;4606;-75
2023/05/16 08:11:11;;;;;;;;;;;;;;;22.63;47.71;100939.22;5042978;28;4297;-76
2023/05/16 08:13:38;;;;;;;;;;;;;;;22.77;47.11;100942.63;5015869;28;5036;-77
2023/05/16 08:16:04;;;;;;;;;;;;;;;22.58;47.34;100949.84;5010387;28;4565;-74
2023/05/16 08:18:31;;;;;;;;;;;;;;;22.51;47.41;100959.66;5015320;28;5114;-74
2023/05/16 08:20:58;;;;;;;;;;;;;;;22.50;47.76;100969.72;5012921;28;3937;-78
2023/05/16 08:23:24;;;;;;;;;;;;;;;22.52;47.42;100969.81;5007889;28;4497;-77
2023/05/16 08:25:53;;;;;;;;;;;;;;;22.50;47.51;100963.97;5006288;28;4122;-77
2023/05/16 08:28:20;;;;;;;;;;;;;;;22.77;47.41;100967.88;5014996;28;3979;-79
2023/05/16 08:30:46;;;;;;;;;;;;;;;22.86;46.87;100972.56;5016563;28;4287;-77
2023/05/16 08:33:13;;;;;;;;;;;;;;;22.85;46.54;100976.09;5014594;28;4107;-82
2023/05/16 08:35:42;;;;;;;;;;;;;;;22.67;47.39;100973.25;5019968;28;4474;-73
2023/05/16 08:38:09;;;;;;;;;;;;;;;22.61;47.37;100982.44;5012392;28;3910;-77
2023/05/16 08:40:35;;;;;;;;;;;;;;;22.29;46.41;100982.63;5010738;28;4751;-74
2023/05/16 08:43:02;;;;;;;;;;;;;;;21.99;47.69;100990.75;5011438;28;4166;-68
2023/05/16 08:45:28;;;;;;;;;;;;;;;22.13;47.33;100982.66;5010784;28;4167;-67
2023/05/16 08:47:55;;;;;;;;;;;;;;;22.18;47.33;100992.22;5005274;28;4304;-67
2023/05/16 08:50:22;;;;;;;;;;;;;;;22.18;47.49;100998.72;5009428;28;4065;-67
2023/05/16 08:52:50;;;;;;;;;;;;;;;22.19;47.50;100987.94;5007719;28;4012;-67
2023/05/16 08:55:16;;;;;;;;;;;;;;;22.17;47.65;100988.59;5010280;28;4108;-67
2023/05/16 08:57:43;;;;;;;;;;;;;;;22.17;47.65;100987.84;5006910;28;4030;-67
2023/05/16 09:00:12;;;;;;;;;;;;;;;22.13;47.43;100976.91;5007747;28;4485;-67
2023/05/16 09:02:39;;;;;;;;;;;;;;;22.13;47.50;100967.50;5009620;28;4457;-67
2023/05/16 09:05:07;;;;;;;;;;;;;;;22.12;47.51;100972.50;5012972;28;3949;-67
2023/05/16 09:07:34;;;;;;;;;;;;;;;22.11;47.60;100953.75;5011750;28;4077;-66
2023/05/16 09:10:00;;;;;;;;;;;;;;;22.11;47.47;100973.94;4997516;28;4337;-66
2023/05/16 09:12:27;;;;;;;;;;;;;;;21.92;47.77;100971.69;4992983;28;4562;-66
2023/05/16 09:14:55;;;;;;;;;;;;;;;21.62;46.34;100965.38;4987660;28;4156;-70
2023/05/16 09:17:21;;;;;;;;;;;;;;;21.39;45.72;100978.03;5001192;28;4194;-66
2023/05/16 09:20:09;;;;;;;;;;;;;;;21.62;45.30;100974.75;5001095;28;4230;-68
2023/05/16 09:22:36;;;;;;;;;;;;;;;21.64;45.84;100991.41;4997830;28;4707;-69
2023/05/16 09:25:03;;;;;;;;;;;;;;;21.75;47.21;100991.19;5005352;28;4328;-69
2023/05/16 09:27:33;;;;;;;;;;;;;;;22.28;47.36;100989.03;5010524;28;4385;-69
2023/05/16 09:30:00;;;;;;;;;;;;;;;22.41;47.02;100982.38;5006148;28;4008;-71
2023/05/16 09:32:26;;;;;;;;;;;;;;;22.51;46.36;100982.00;5006693;28;4006;-69
2023/05/16 09:34:56;;;;;;;;;;;;;;;22.55;46.59;100985.06;4996037;28;4188;-73
2023/05/16 09:37:22;;;;;;;;;;;;;;;22.59;46.19;100991.75;5005018;28;4192;-71
2023/05/16 09:39:50;;;;;;;;;;;;;;;22.66;46.09;100989.09;5005412;28;4325;-68
2023/05/16 09:42:16;;;;;;;;;;;;;;;22.69;46.17;100996.41;5002905;28;4188;-68
2023/05/16 09:44:49;;;;;;;;;;;;;;;22.71;46.08;100996.50;5005077;28;4064;-68
2023/05/16 09:47:16;;;;;;;;;;;;;;;22.74;45.96;101003.84;5005419;28;4262;-67
2023/05/16 09:49:43;;;;;;;;;;;;;;;22.71;46.65;100997.25;5005060;28;3984;-68
2023/05/16 09:52:09;;;;;;;;;;;;;;;22.86;46.18;101007.22;4997810;28;4140;-68
2023/05/16 09:54:36;;;;;;;;;;;;;;;22.90;46.28;101010.22;5000353;28;4306;-67
2023/05/16 09:57:02;;;;;;;;;;;;;;;22.65;45.94;101016.47;5004265;28;4034;-67
2023/05/16 09:59:29;;;;;;;;;;;;;;;22.85;45.79;101014.38;5003176;28;4396;-69
2023/05/16 10:01:59;;;;;;;;;;;;;;;22.89;46.13;101017.41;4997878;28;4140;-68
2023/05/16 10:04:25;;;;;;;;;;;;;;;22.93;46.06;101014.69;5005322;28;4165;-70
2023/05/16 10:06:53;;;;;;;;;;;;;;;22.95;46.25;101019.78;5001368;28;4651;-69
2023/05/16 10:09:20;;;;;;;;;;;;;;;22.97;46.35;101023.50;5001491;28;4279;-69
2023/05/16 10:11:46;;;;;;;;;;;;;;;23.00;46.08;101030.88;4998958;28;4185;-69
2023/05/16 10:14:12;;;;;;;;;;;;;;;22.97;46.21;101023.50;5000040;28;4367;-69
2023/05/16 10:16:40;;;;;;;;;;;;;;;23.07;46.12;101019.56;5004426;28;4157;-69
2023/05/16 10:19:07;;;;;;;;;;;;;;;23.09;46.15;101026.16;5005924;28;3962;-69
2023/05/16 10:21:34;;;;;;;;;;;;;;;23.12;46.54;101024.06;5004907;28;4094;-71
2023/05/16 10:24:02;;;;;;;;;;;;;;;23.13;46.41;101022.66;5005922;28;4566;-69
2023/05/16 10:26:29;;;;;;;;;;;;;;;22.87;46.61;101026.00;5007437;28;4089;-73
2023/05/16 10:28:55;;;;;;;;;;;;;;;22.87;47.11;101007.94;5004527;28;4165;-73
2023/05/16 10:31:22;;;;;;;;;;;;;;;23.05;47.00;101014.44;5004724;28;4211;-73
2023/05/16 10:33:48;;;;;;;;;;;;;;;23.11;46.67;101013.91;5008453;28;4028;-72
2023/05/16 10:36:15;;;;;;;;;;;;;;;23.09;46.65;101022.50;5007109;28;4176;-71
2023/05/16 10:38:42;;;;;;;;;;;;;;;23.08;46.52;101035.47;5001161;28;4568;-71
2023/05/16 10:41:08;;;;;;;;;;;;;;;23.10;47.08;101035.56;5005552;28;4143;-69
2023/05/16 10:43:35;;;;;;;;;;;;;;;23.11;46.60;101019.69;5009688;28;4218;-69
2023/05/16 10:46:02;;;;;;;;;;;;;;;23.14;46.65;101035.72;5001886;28;4747;-68
2023/05/16 10:48:33;;;;;;;;;;;;;;;23.15;46.66;101032.13;5006975;28;4170;-70
2023/05/16 10:51:01;;;;;;;;;;;;;;;23.21;46.94;101046.09;5005996;28;4143;-69
2023/05/16 10:53:27;;;;;;;;;;;;;;;23.23;46.73;101048.28;5006159;28;4263;-69
2023/05/16 10:56:00;;;;;;;;;;;;;;;23.24;46.74;101053.41;5009721;28;4035;-69
2023/05/16 10:58:33;;;;;;;;;;;;;;;23.11;46.40;101060.91;5008000;28;4397;-70
2023/05/16 11:01:22;;;;;;;;;;;;;;;23.05;46.72;101051.25;5008638;28;4427;-73
2023/05/16 11:04:01;;;;;;;;;;;;;;;22.91;47.16;101055.03;5007725;28;4081;-72
2023/05/16 11:06:28;;;;;;;;;;;;;;;22.80;47.56;101044.50;5003080;28;4202;-70
2023/05/16 11:09:04;;;;;;;;;;;;;;;22.73;47.64;101040.63;5008484;28;4097;-71
2023/05/16 11:11:37;;;;;;;;;;;;;;;23.04;47.85;101043.97;5006813;28;4707;-73
2023/05/16 11:14:04;;;;;;;;;;;;;;;23.21;46.79;101040.31;5010547;28;4258;-72
2023/05/16 11:16:30;;;;;;;;;;;;;;;23.19;46.91;101054.66;5011073;28;4491;-70
2023/05/16 11:19:03;;;;;;;;;;;;;;;23.19;46.84;101051.78;5008769;28;4070;-70
2023/05/16 11:21:49;;;;;;;;;;;;;;;23.22;46.80;101050.44;5005744;28;4009;-72
2023/05/16 11:24:30;;;;;;;;;;;;;;;23.09;47.07;101057.91;5017826;28;5178;-68
2023/05/16 11:26:57;;;;;;;;;;;;;;;22.82;47.49;101058.28;5008524;28;4186;-70
2023/05/16 11:29:25;;;;;;;;;;;;;;;22.66;47.99;101058.38;5008017;28;4072;-73
2023/05/16 11:31:51;;;;;;;;;;;;;;;22.56;48.75;101050.78;4994164;28;4517;-70
2023/05/16 11:34:18;;;;;;;;;;;;;;;22.79;47.99;101061.09;5004242;28;4277;-73
2023/05/16 11:36:45;;;;;;;;;;;;;;;22.68;48.44;101055.56;5010159;28;4511;-70
2023/05/16 11:39:11;;;;;;;;;;;;;;;22.83;47.89;101043.16;5005607;28;4747;-72
2023/05/16 11:41:38;;;;;;;;;;;;;;;22.82;47.70;101035.91;5010998;28;4171;-69
2023/05/16 11:44:05;;;;;;;;;;;;;;;22.82;47.99;101038.81;4997663;28;4112;-68
2023/05/16 11:46:32;;;;;;;;;;;;;;;23.05;47.87;101049.09;5008622;28;4279;-72
2023/05/16 11:48:58;;;;;;;;;;;;;;;22.95;47.66;101049.44;5006227;28;4031;-71
2023/05/16 11:51:25;;;;;;;;;;;;;;;23.04;47.45;101043.97;5008198;28;3983;-69
2023/05/16 11:53:52;;;;;;;;;;;;;;;22.96;47.44;101055.94;5004618;28;4104;-74
2023/05/16 11:56:20;;;;;;;;;;;;;;;22.89;47.35;101063.63;5008078;28;4120;-76
2023/05/16 11:58:47;;;;;;;;;;;;;;;22.72;48.45;101049.94;5007632;28;5139;-69
2023/05/16 12:01:13;;;;;;;;;;;;;;;22.54;47.03;101053.59;5001152;28;4470;-67
2023/05/16 12:03:40;;;;;;;;;;;;;;;22.51;47.05;101057.03;5005291;28;4061;-68
2023/05/16 12:06:06;;;;;;;;;;;;;;;22.47;47.15;101056.88;5005231;28;4094;-67
2023/05/16 12:08:33;;;;;;;;;;;;;;;22.75;47.42;101042.84;5003750;28;4722;-70
2023/05/16 12:11:00;;;;;;;;;;;;;;;23.00;46.75;101051.09;4996308;28;4609;-70
2023/05/16 12:13:26;;;;;;;;;;;;;;;23.13;46.84;101045.75;5001052;28;4060;-69
2023/05/16 12:15:52;;;;;;;;;;;;;;;23.16;46.57;101050.97;5006135;28;4164;-69
2023/05/16 12:18:20;;;;;;;;;;;;;;;23.17;46.46;101045.94;4998901;28;4148;-69
2023/05/16 12:20:47;;;;;;;;;;;;;;;23.01;46.65;101048.94;5008552;28;4196;-71
2023/05/16 12:23:13;;;;;;;;;;;;;;;22.87;47.10;101054.13;5006677;28;3996;-70
2023/05/16 12:25:45;;;;;;;;;;;;;;;22.88;46.75;101044.78;5006763;28;5365;-69
2023/05/16 12:28:11;;;;;;;;;;;;;;;22.84;46.77;101047.53;5008981;28;4091;-71
2023/05/16 12:30:44;;;;;;;;;;;;;;;22.70;47.20;101053.50;5007284;28;4498;-70
2023/05/16 12:33:12;;;;;;;;;;;;;;;22.53;47.38;101052.09;5003565;28;4024;-71
2023/05/16 12:35:39;;;;;;;;;;;;;;;22.49;47.73;101054.81;5002059;28;4554;-72
2023/05/16 12:38:09;;;;;;;;;;;;;;;22.88;46.97;101062.13;5008319;28;4043;-72
2023/05/16 12:40:36;;;;;;;;;;;;;;;22.89;46.64;101057.09;5010048;28;3991;-71
2023/05/16 12:43:02;;;;;;;;;;;;;;;22.82;46.48;101053.25;5012355;28;6613;-69
2023/05/16 12:45:28;;;;;;;;;;;;;;;22.85;46.63;101063.44;5008382;28;4176;-73
2023/05/16 12:47:55;;;;;;;;;;;;;;;22.88;46.74;101070.78;5008427;28;4499;-71